Time,TemperatureF,DewpointF,PressureIn,WindDirection,WindDirectionDegrees,WindSpeedMPH,WindSpeedGustMPH,Humidity,HourlyPrecipIn,Conditions,Clouds,dailyrainin,SolarRadiationWatts/m^2,SoftwareType,DateUTC
2013-04-21 00:02:00,56.5,21.0,29.97,SSW,205,6.0,7.0,25,0.00,,,0.00,0,weatherlink.com 1.10,2013-04-21 07:02:00,
2013-04-21 00:17:00,54.2,22.0,29.97,SSW,192,3.0,3.0,29,0.00,,,0.00,0,weatherlink.com 1.10,2013-04-21 07:17:00,
2013-04-21 00:32:00,53.9,23.0,29.98,South,191,1.0,2.0,30,0.00,,,0.00,0,weatherlink.com 1.10,2013-04-21 07:32:00,
2013-04-21 00:47:00,54.1,21.0,29.98,ENE,65,0.0,3.0,28,0.00,,,0.00,0,weatherlink.com 1.10,2013-04-21 07:47:00,
2013-04-21 01:03:00,53.1,21.0,29.98,South,171,0.0,1.0,29,0.00,,,0.00,0,weatherlink.com 1.10,2013-04-21 08:03:00,
2013-04-21 01:18:00,52.5,21.0,29.98,ESE,103,2.0,3.0,29,0.00,,,0.00,0,weatherlink.com 1.10,2013-04-21 08:18:00,
2013-04-21 01:33:00,52.0,22.0,29.98,East,88,1.0,2.0,31,0.00,,,0.00,0,weatherlink.com 1.10,2013-04-21 08:33:00,
2013-04-21 01:48:00,51.8,22.0,29.98,East,94,1.0,2.0,31,0.00,,,0.00,0,weatherlink.com 1.10,2013-04-21 08:48:00,
2013-04-21 02:03:00,51.5,22.0,29.98,East,86,2.0,5.0,31,0.00,,,0.00,0,weatherlink.com 1.10,2013-04-21 09:03:00,
2013-04-21 02:18:00,51.8,22.0,29.98,ENE,77,3.0,5.0,31,0.00,,,0.00,0,weatherlink.com 1.10,2013-04-21 09:18:00,
2013-04-21 02:33:00,52.0,21.0,29.98,ENE,71,3.0,4.0,30,0.00,,,0.00,0,weatherlink.com 1.10,2013-04-21 09:33:00,
2013-04-21 02:48:00,52.6,21.0,29.98,ENE,61,3.0,5.0,29,0.00,,,0.00,0,weatherlink.com 1.10,2013-04-21 09:48:00,
2013-04-21 03:03:00,51.5,21.0,29.98,ENE,65,2.0,3.0,30,0.00,,,0.00,0,weatherlink.com 1.10,2013-04-21 10:03:00,
2013-04-21 03:18:00,53.1,20.0,29.98,NE,51,3.0,4.0,27,0.00,,,0.00,0,weatherlink.com 1.10,2013-04-21 10:18:00,
2013-04-21 03:33:00,50.9,20.0,29.99,NE,51,0.0,0.0,29,0.00,,,0.00,0,weatherlink.com 1.10,2013-04-21 10:33:00,
2013-04-21 03:48:00,49.9,22.0,29.99,NE,51,0.0,3.0,34,0.00,,,0.00,0,weatherlink.com 1.10,2013-04-21 10:48:00,
2013-04-21 04:03:00,47.6,24.0,29.99,NE,51,0.0,0.0,40,0.00,,,0.00,0,weatherlink.com 1.10,2013-04-21 11:03:00,
2013-04-21 04:18:00,47.7,22.0,29.99,NE,53,1.0,4.0,37,0.00,,,0.00,0,weatherlink.com 1.10,2013-04-21 11:18:00,
2013-04-21 04:33:00,48.3,21.0,29.99,ENE,72,2.0,2.0,34,0.00,,,0.00,0,weatherlink.com 1.10,2013-04-21 11:33:00,
2013-04-21 04:48:00,48.4,21.0,29.99,ENE,65,1.0,3.0,34,0.00,,,0.00,0,weatherlink.com 1.10,2013-04-21 11:48:00,
2013-04-21 05:03:00,47.0,20.0,29.99,ENE,65,0.0,1.0,35,0.00,,,0.00,0,weatherlink.com 1.10,2013-04-21 12:03:00,
2013-04-21 05:18:00,46.9,22.0,29.99,ENE,65,0.0,1.0,37,0.00,,,0.00,0,weatherlink.com 1.10,2013-04-21 12:18:00,
2013-04-21 05:33:00,46.2,24.0,30.00,ENE,65,0.0,0.0,41,0.00,,,0.00,0,weatherlink.com 1.10,2013-04-21 12:33:00,
2013-04-21 05:48:00,46.0,21.0,30.00,ENE,65,0.0,1.0,38,0.00,,,0.00,5,weatherlink.com 1.10,2013-04-21 12:48:00,
2013-04-21 06:03:00,45.6,22.0,30.01,ENE,65,0.0,1.0,40,0.00,,,0.00,14,weatherlink.com 1.10,2013-04-21 13:03:00,
2013-04-21 06:18:00,47.1,22.0,30.01,ENE,65,0.0,1.0,37,0.00,,,0.00,39,weatherlink.com 1.10,2013-04-21 13:18:00,
2013-04-21 06:33:00,49.3,23.0,30.02,ENE,65,0.0,1.0,36,0.00,,,0.00,79,weatherlink.com 1.10,2013-04-21 13:33:00,
2013-04-21 06:48:00,54.0,23.0,30.02,ENE,65,0.0,1.0,30,0.00,,,0.00,135,weatherlink.com 1.10,2013-04-21 13:48:00,
2013-04-21 07:03:00,58.9,26.0,30.03,ENE,65,1.0,1.0,28,0.00,,,0.00,193,weatherlink.com 1.10,2013-04-21 14:03:00,
2013-04-21 07:18:00,60.8,25.0,30.03,NNE,27,1.0,2.0,26,0.00,,,0.00,223,weatherlink.com 1.10,2013-04-21 14:18:00,
2013-04-21 07:33:00,63.7,27.0,30.03,NNW,335,2.0,3.0,25,0.00,,,0.00,295,weatherlink.com 1.10,2013-04-21 14:33:00,
2013-04-21 07:49:00,65.0,27.0,30.04,WNW,285,1.0,6.0,24,0.00,,,0.00,350,weatherlink.com 1.10,2013-04-21 14:49:00,
2013-04-21 08:04:00,67.1,28.0,30.04,NW,323,1.0,3.0,23,0.00,,,0.00,401,weatherlink.com 1.10,2013-04-21 15:04:00,
2013-04-21 08:19:00,68.8,27.0,30.04,NW,319,2.0,3.0,21,0.00,,,0.00,455,weatherlink.com 1.10,2013-04-21 15:19:00,
2013-04-21 08:34:00,71.2,27.0,30.04,NNW,331,2.0,4.0,19,0.00,,,0.00,508,weatherlink.com 1.10,2013-04-21 15:34:00,
2013-04-21 08:49:00,72.8,25.0,30.04,North,355,1.0,4.0,17,0.00,,,0.00,555,weatherlink.com 1.10,2013-04-21 15:49:00,
2013-04-21 09:04:00,75.1,26.0,30.04,NW,317,0.0,4.0,16,0.00,,,0.00,608,weatherlink.com 1.10,2013-04-21 16:04:00,
2013-04-21 09:19:00,77.7,21.0,30.04,NNW,343,2.0,4.0,12,0.00,,,0.00,650,weatherlink.com 1.10,2013-04-21 16:19:00,
2013-04-21 09:34:00,78.8,22.0,30.04,NNW,331,3.0,4.0,12,0.00,,,0.00,694,weatherlink.com 1.10,2013-04-21 16:34:00,
2013-04-21 09:49:00,79.4,22.0,30.04,West,278,3.0,7.0,12,0.00,,,0.00,737,weatherlink.com 1.10,2013-04-21 16:49:00,
2013-04-21 10:04:00,81.2,20.0,30.03,WSW,238,3.0,7.0,10,0.00,,,0.00,773,weatherlink.com 1.10,2013-04-21 17:04:00,
2013-04-21 10:19:00,83.1,19.0,30.03,WNW,288,3.0,7.0,9,0.00,,,0.00,809,weatherlink.com 1.10,2013-04-21 17:19:00,
2013-04-21 10:34:00,82.9,18.0,30.03,WSW,245,4.0,8.0,9,0.00,,,0.00,842,weatherlink.com 1.10,2013-04-21 17:34:00,
2013-04-21 10:49:00,83.4,16.0,30.02,NW,323,3.0,8.0,8,0.00,,,0.00,868,weatherlink.com 1.10,2013-04-21 17:49:00,
2013-04-21 11:04:00,84.7,17.0,30.02,SSW,198,1.0,7.0,8,0.00,,,0.00,896,weatherlink.com 1.10,2013-04-21 18:04:00,
2013-04-21 11:19:00,84.6,17.0,30.01,West,267,5.0,11.0,8,0.00,,,0.00,909,weatherlink.com 1.10,2013-04-21 18:19:00,
2013-04-21 11:34:00,85.1,17.0,30.00,West,266,8.0,12.0,8,0.00,,,0.00,932,weatherlink.com 1.10,2013-04-21 18:34:00,
2013-04-21 11:50:00,85.6,18.0,29.99,WNW,303,5.0,12.0,8,0.00,,,0.00,944,weatherlink.com 1.10,2013-04-21 18:50:00,
2013-04-21 12:05:00,85.0,14.0,29.98,South,177,1.0,9.0,7,0.00,,,0.00,949,weatherlink.com 1.10,2013-04-21 19:05:00,
2013-04-21 12:20:00,86.5,15.0,29.98,SW,223,8.0,10.0,7,0.00,,,0.00,954,weatherlink.com 1.10,2013-04-21 19:20:00,
2013-04-21 12:35:00,86.7,15.0,29.98,WSW,252,2.0,9.0,7,0.00,,,0.00,953,weatherlink.com 1.10,2013-04-21 19:35:00,
2013-04-21 12:50:00,86.8,16.0,29.97,WNW,300,3.0,10.0,7,0.00,,,0.00,946,weatherlink.com 1.10,2013-04-21 19:50:00,
2013-04-21 13:05:00,86.4,15.0,29.97,WNW,302,8.0,12.0,7,0.00,,,0.00,939,weatherlink.com 1.10,2013-04-21 20:05:00,
2013-04-21 13:20:00,86.0,15.0,29.96,SSW,196,5.0,10.0,7,0.00,,,0.00,925,weatherlink.com 1.10,2013-04-21 20:20:00,
2013-04-21 13:35:00,87.7,16.0,29.96,South,191,7.0,12.0,7,0.00,,,0.00,909,weatherlink.com 1.10,2013-04-21 20:35:00,
2013-04-21 13:50:00,87.4,12.0,29.95,West,259,7.0,12.0,6,0.00,,,0.00,884,weatherlink.com 1.10,2013-04-21 20:50:00,
2013-04-21 14:05:00,88.6,13.0,29.95,West,273,5.0,14.0,6,0.00,,,0.00,863,weatherlink.com 1.10,2013-04-21 21:05:00,
2013-04-21 14:20:00,87.8,13.0,29.94,WSW,254,5.0,11.0,6,0.00,,,0.00,833,weatherlink.com 1.10,2013-04-21 21:20:00,
2013-04-21 14:35:00,88.3,13.0,29.93,WSW,242,10.0,14.0,6,0.00,,,0.00,802,weatherlink.com 1.10,2013-04-21 21:35:00,
2013-04-21 14:50:00,88.3,13.0,29.93,WSW,256,3.0,13.0,6,0.00,,,0.00,766,weatherlink.com 1.10,2013-04-21 21:50:00,
2013-04-21 15:05:00,87.9,13.0,29.92,WNW,294,4.0,13.0,6,0.00,,,0.00,724,weatherlink.com 1.10,2013-04-21 22:05:00,
2013-04-21 15:20:00,88.5,13.0,29.91,West,263,7.0,12.0,6,0.00,,,0.00,686,weatherlink.com 1.10,2013-04-21 22:20:00,
2013-04-21 15:35:00,88.7,13.0,29.91,WSW,248,7.0,13.0,6,0.00,,,0.00,642,weatherlink.com 1.10,2013-04-21 22:35:00,
2013-04-21 15:50:00,89.0,14.0,29.91,WSW,254,3.0,11.0,6,0.00,,,0.00,596,weatherlink.com 1.10,2013-04-21 22:50:00,
2013-04-21 16:05:00,87.8,13.0,29.90,West,264,2.0,10.0,6,0.00,,,0.00,545,weatherlink.com 1.10,2013-04-21 23:05:00,
2013-04-21 16:20:00,87.3,12.0,29.90,SSW,203,7.0,14.0,6,0.00,,,0.00,499,weatherlink.com 1.10,2013-04-21 23:20:00,
2013-04-21 16:35:00,87.3,12.0,29.89,WNW,289,7.0,11.0,6,0.00,,,0.00,445,weatherlink.com 1.10,2013-04-21 23:35:00,
2013-04-21 16:50:00,87.2,12.0,29.89,West,263,3.0,10.0,6,0.00,,,0.00,390,weatherlink.com 1.10,2013-04-21 23:50:00,
2013-04-21 17:05:00,87.0,12.0,29.89,WNW,282,5.0,13.0,6,0.00,,,0.00,341,weatherlink.com 1.10,2013-04-22 00:05:00,
2013-04-21 17:20:00,86.5,15.0,29.89,NW,315,4.0,10.0,7,0.00,,,0.00,287,weatherlink.com 1.10,2013-04-22 00:20:00,
2013-04-21 17:35:00,86.3,15.0,29.89,WNW,297,6.0,7.0,7,0.00,,,0.00,232,weatherlink.com 1.10,2013-04-22 00:35:00,
2013-04-21 17:50:00,85.7,15.0,29.89,WNW,296,4.0,10.0,7,0.00,,,0.00,171,weatherlink.com 1.10,2013-04-22 00:50:00,
2013-04-21 18:05:00,85.4,14.0,29.89,West,267,9.0,9.0,7,0.00,,,0.00,109,weatherlink.com 1.10,2013-04-22 01:05:00,
2013-04-21 18:20:00,84.6,17.0,29.89,NW,313,2.0,8.0,8,0.00,,,0.00,62,weatherlink.com 1.10,2013-04-22 01:20:00,
2013-04-21 18:35:00,83.8,16.0,29.89,WNW,294,3.0,9.0,8,0.00,,,0.00,23,weatherlink.com 1.10,2013-04-22 01:35:00,
2013-04-21 18:50:00,82.8,18.0,29.89,NW,322,3.0,8.0,9,0.00,,,0.00,11,weatherlink.com 1.10,2013-04-22 01:50:00,
2013-04-21 19:05:00,80.9,19.0,29.89,NW,304,0.0,2.0,10,0.00,,,0.00,0,weatherlink.com 1.10,2013-04-22 02:05:00,
2013-04-21 19:20:00,78.7,20.0,29.89,NW,304,0.0,1.0,11,0.00,,,0.00,0,weatherlink.com 1.10,2013-04-22 02:20:00,
2013-04-21 19:35:00,75.2,19.0,29.90,NW,304,0.0,0.0,12,0.00,,,0.00,0,weatherlink.com 1.10,2013-04-22 02:35:00,
2013-04-21 19:50:00,74.2,20.0,29.90,NW,304,0.0,0.0,13,0.00,,,0.00,0,weatherlink.com 1.10,2013-04-22 02:50:00,
2013-04-21 20:05:00,72.1,20.0,29.90,NNW,332,1.0,2.0,14,0.00,,,0.00,0,weatherlink.com 1.10,2013-04-22 03:05:00,
2013-04-21 20:20:00,70.9,19.0,29.91,ENE,58,4.0,4.0,14,0.00,,,0.00,0,weatherlink.com 1.10,2013-04-22 03:20:00,
2013-04-21 20:35:00,70.6,21.0,29.91,ENE,64,2.0,5.0,15,0.00,,,0.00,0,weatherlink.com 1.10,2013-04-22 03:35:00,
2013-04-21 20:50:00,70.2,20.0,29.92,ENE,68,0.0,5.0,15,0.00,,,0.00,0,weatherlink.com 1.10,2013-04-22 03:50:00,
2013-04-21 21:05:00,68.3,22.0,29.92,ENE,67,5.0,5.0,17,0.00,,,0.00,0,weatherlink.com 1.10,2013-04-22 04:05:00,
2013-04-21 21:20:00,67.9,21.0,29.93,East,85,3.0,3.0,17,0.00,,,0.00,0,weatherlink.com 1.10,2013-04-22 04:20:00,
2013-04-21 21:35:00,66.7,23.0,29.93,South,186,1.0,6.0,19,0.00,,,0.00,0,weatherlink.com 1.10,2013-04-22 04:35:00,
2013-04-21 21:50:00,66.5,20.0,29.93,ENE,66,5.0,5.0,17,0.00,,,0.00,0,weatherlink.com 1.10,2013-04-22 04:50:00,
2013-04-21 22:05:00,66.4,20.0,29.93,ENE,69,2.0,5.0,17,0.00,,,0.00,0,weatherlink.com 1.10,2013-04-22 05:05:00,
2013-04-21 22:20:00,65.5,19.0,29.93,ENE,65,2.0,5.0,17,0.00,,,0.00,0,weatherlink.com 1.10,2013-04-22 05:20:00,
2013-04-21 22:35:00,63.4,20.0,29.94,ENE,65,0.0,4.0,19,0.00,,,0.00,0,weatherlink.com 1.10,2013-04-22 05:35:00,
2013-04-21 22:50:00,61.6,22.0,29.94,SW,236,0.0,1.0,22,0.00,,,0.00,0,weatherlink.com 1.10,2013-04-22 05:50:00,
2013-04-21 23:05:00,63.4,22.0,29.94,SSE,160,0.0,2.0,20,0.00,,,0.00,0,weatherlink.com 1.10,2013-04-22 06:05:00,
2013-04-21 23:20:00,64.5,21.0,29.95,East,101,0.0,1.0,19,0.00,,,0.00,0,weatherlink.com 1.10,2013-04-22 06:20:00,
2013-04-21 23:35:00,62.6,21.0,29.95,ENE,67,3.0,4.0,20,0.00,,,0.00,0,weatherlink.com 1.10,2013-04-22 06:35:00,
2013-04-21 23:50:00,62.3,21.0,29.95,ENE,78,3.0,4.0,20,0.00,,,0.00,0,weatherlink.com 1.10,2013-04-22 06:50:00,